West Eminence, Missouri
Current Conditions -  °F | °C
As of 6:53 AM on Thursday 23 Oct 2014 (Local Time) from KUNO Reporting Station
Clear Clear  
Wind Chill: 40°   Ceiling: Unl
Heat Index: 40°   Visibility: 10mi
Dew Point: 37°   Wind: 0mph
Humidity: 89%   Direction: NA
Pressure: 30.21"   Gusts: NA
Location:  37.1833°N, 91.4819°W
Report Text: KUNO 231153Z AUTO 00000KT 10SM CLR 04/03 A3021 RMK AO2 SLP229 T00440028 10072 20028 51003
Loading
Personal Weather Stations






























Interactive Weather Map
Tropical Storm Tracking
New forecast layout! Learn more

10-Day Weather Forecast

Advertisements
Track Severe Weather on mobile